SBHT

Details ICAO SBHT (ATM)
Name ALTAMIRA
Region Brazil
Timezone America/Santarem (UTC-3.0)
Plans Departing 11
Arriving 18
Stats Elevation 368 ft / 112 m (AMSL)
Location -3.253906° -52.253976°
Runways 1
Magnetic Variation 19.369° W
Sunrise 2017-12-11 09:14:38 UTC / 2017-12-11 06:14:38 Local
Sunset 2017-12-11 21:32:57 UTC / 2017-12-11 18:32:57 Local
Advertisement - Login to hide

Runways

ID Width Length Bearing (true) Bearing (mag) Surface Threshold Offset Overrun Length
07 125 ft / 38 m 6,575 ft / 2,004 m 51.82° 71.19° Asphalt 0 ft / 0 m 0 ft / 0 m
25 125 ft / 38 m 6,575 ft / 2,004 m 231.82° 251.19° Asphalt 0 ft / 0 m 0 ft / 0 m

Map

Weather


0- 5 10 15 20 25 30 35+ Temperature / ° C

Clouds and Precipitation
Forecast for 2017-12-12 00:00 UTC. Updated 2 hours ago

Ground ~20,000 ft ~40,000 ft Winds

METAR

SBHT 120000Z 00000KT 9999 FEW015 25/23 Q1008

TAF

Not found

Frequencies

Tower 125.85 MHz RDO
Warning: Do not use this data for real-world aviation or navigation. No guarantee of current accuracy is given.